createdAt,value
2019-06-08T00:02:14.597Z,21.19
2019-06-08T00:04:47.837Z,21.15
2019-06-08T00:07:23.132Z,21.17
2019-06-08T00:09:55.792Z,21.18
2019-06-08T00:12:28.166Z,21.19
2019-06-08T00:15:00.015Z,21.19
2019-06-08T00:17:38.463Z,21.16
2019-06-08T00:20:07.592Z,21.14
2019-06-08T00:22:39.472Z,21.20
2019-06-08T00:25:11.598Z,21.20
2019-06-08T00:27:44.420Z,21.18
2019-06-08T00:30:19.778Z,21.16
2019-06-08T00:32:52.113Z,21.12
2019-06-08T00:35:24.917Z,21.12
2019-06-08T00:37:58.061Z,21.09
2019-06-08T00:40:29.998Z,21.11
2019-06-08T00:43:01.795Z,21.07
2019-06-08T00:45:34.160Z,21.05
2019-06-08T00:48:06.773Z,21.01
2019-06-08T00:50:38.890Z,21.01
2019-06-08T00:53:12.779Z,21.02
2019-06-08T00:55:44.671Z,21.01
2019-06-08T00:58:17.976Z,21.00
2019-06-08T01:00:51.319Z,20.98
2019-06-08T01:03:23.834Z,20.97
2019-06-08T01:05:58.450Z,21.01
2019-06-08T01:08:30.307Z,21.04
2019-06-08T01:11:02.374Z,21.04
2019-06-08T01:13:35.515Z,21.02
2019-06-08T01:16:07.581Z,20.93
2019-06-08T01:18:39.624Z,20.87
2019-06-08T01:21:11.437Z,20.88
2019-06-08T01:23:44.431Z,20.87
2019-06-08T01:26:16.382Z,20.88
2019-06-08T01:28:48.555Z,20.88
2019-06-08T01:31:20.468Z,20.90
2019-06-08T01:33:52.453Z,20.87
2019-06-08T01:36:25.219Z,20.84
2019-06-08T01:38:58.447Z,20.89
2019-06-08T01:41:31.803Z,20.85
2019-06-08T01:44:04.228Z,20.87
2019-06-08T01:46:36.739Z,20.81
2019-06-08T01:49:10.164Z,20.84
2019-06-08T01:51:43.178Z,20.88
2019-06-08T01:54:15.324Z,20.82
2019-06-08T01:56:47.230Z,20.82
2019-06-08T01:59:20.662Z,20.77
2019-06-08T02:01:53.325Z,20.78
2019-06-08T02:04:26.055Z,20.79
2019-06-08T02:06:58.642Z,20.78
2019-06-08T02:09:32.768Z,20.82
2019-06-08T02:12:05.102Z,20.79
2019-06-08T02:14:37.358Z,20.75
2019-06-08T02:17:11.365Z,20.74
2019-06-08T02:19:43.840Z,20.74
2019-06-08T02:22:16.782Z,20.72
2019-06-08T02:24:49.247Z,20.69
2019-06-08T02:27:21.247Z,20.69
2019-06-08T02:29:55.894Z,20.72
2019-06-08T02:32:30.913Z,20.72
2019-06-08T02:35:02.563Z,20.74
2019-06-08T02:37:37.717Z,20.71
2019-06-08T02:40:10.886Z,20.73
2019-06-08T02:42:46.026Z,20.67
2019-06-08T02:45:19.893Z,20.67
2019-06-08T02:47:55.326Z,20.66
2019-06-08T02:50:50.443Z,20.67
2019-06-08T02:53:24.854Z,20.68
2019-06-08T02:56:01.134Z,20.65
2019-06-08T02:58:39.092Z,20.72
2019-06-08T03:01:16.029Z,20.76
2019-06-08T03:03:49.968Z,20.74
2019-06-08T03:06:38.901Z,20.81
2019-06-08T03:09:10.958Z,20.85
2019-06-08T03:11:46.207Z,20.95
2019-06-08T03:14:20.444Z,21.02
2019-06-08T03:16:52.921Z,20.99
2019-06-08T03:19:25.739Z,21.05
2019-06-08T03:21:58.461Z,21.12
2019-06-08T03:24:36.480Z,21.19
2019-06-08T03:27:08.495Z,21.25
2019-06-08T03:29:41.567Z,21.32
2019-06-08T03:32:14.338Z,21.34
2019-06-08T03:34:55.077Z,21.42
2019-06-08T03:37:21.809Z,21.51
2019-06-08T03:39:54.434Z,21.54
2019-06-08T03:42:26.184Z,21.62
2019-06-08T03:44:59.879Z,21.71
2019-06-08T03:47:34.386Z,21.78
2019-06-08T03:50:08.985Z,21.84
2019-06-08T03:52:42.064Z,21.91
2019-06-08T03:55:14.740Z,21.96
2019-06-08T03:57:48.000Z,22.09
2019-06-08T04:00:20.382Z,22.13
2019-06-08T04:02:52.703Z,22.24
2019-06-08T04:05:25.208Z,22.31
2019-06-08T04:07:58.357Z,22.37
2019-06-08T04:10:32.301Z,22.44
2019-06-08T04:13:05.990Z,22.48
2019-06-08T04:15:40.395Z,22.59
2019-06-08T04:18:13.111Z,22.67
2019-06-08T04:20:46.406Z,22.77
2019-06-08T04:23:18.674Z,22.87
2019-06-08T04:25:50.786Z,22.96
2019-06-08T04:28:22.774Z,23.06
2019-06-08T04:30:54.638Z,23.17
2019-06-08T04:33:26.557Z,23.26
2019-06-08T04:35:58.519Z,23.36
2019-06-08T04:38:31.288Z,23.46
2019-06-08T04:41:03.075Z,23.58
2019-06-08T04:43:35.653Z,23.62
2019-06-08T04:46:09.049Z,23.72
2019-06-08T04:48:45.171Z,23.83
2019-06-08T04:51:16.773Z,23.90
2019-06-08T04:53:49.583Z,23.87
2019-06-08T04:56:21.880Z,24.01
2019-06-08T04:58:57.698Z,24.06
2019-06-08T05:01:30.051Z,24.18
2019-06-08T05:04:01.989Z,24.23
2019-06-08T05:06:33.816Z,24.27
2019-06-08T05:09:06.615Z,24.41
2019-06-08T05:11:41.094Z,24.55
2019-06-08T05:14:12.996Z,24.64
2019-06-08T05:16:47.394Z,24.71
2019-06-08T05:19:19.351Z,24.78
2019-06-08T05:21:51.226Z,24.85
2019-06-08T05:24:23.211Z,24.93
2019-06-08T05:26:57.296Z,25.07
2019-06-08T05:29:29.686Z,25.20
2019-06-08T05:32:01.581Z,25.27
2019-06-08T05:34:36.786Z,25.33
2019-06-08T05:37:09.381Z,25.37
2019-06-08T05:39:41.559Z,25.54
2019-06-08T05:42:15.594Z,25.56
2019-06-08T05:44:47.947Z,25.67
2019-06-08T05:47:20.370Z,25.64
2019-06-08T05:49:53.760Z,25.81
2019-06-08T05:52:27.611Z,25.77
2019-06-08T05:55:02.850Z,25.86
2019-06-08T05:57:36.341Z,25.94
2019-06-08T06:00:11.394Z,26.07
2019-06-08T06:02:44.717Z,26.24
2019-06-08T06:05:18.795Z,26.27
2019-06-08T06:07:51.194Z,26.41
2019-06-08T06:10:26.331Z,26.52
2019-06-08T06:12:58.223Z,26.50
2019-06-08T06:15:30.235Z,26.53
2019-06-08T06:18:02.307Z,26.58
2019-06-08T06:20:36.647Z,26.59
2019-06-08T06:23:11.078Z,26.69
2019-06-08T06:25:43.398Z,26.69
2019-06-08T06:28:15.578Z,26.77
2019-06-08T06:30:48.422Z,26.83
2019-06-08T06:33:20.918Z,27.00
2019-06-08T06:35:52.619Z,27.15
2019-06-08T06:38:26.909Z,27.14
2019-06-08T06:40:58.773Z,27.27
2019-06-08T06:43:30.554Z,27.43
2019-06-08T06:46:02.922Z,27.65
2019-06-08T06:48:34.768Z,27.84
2019-06-08T06:51:06.612Z,28.03
2019-06-08T06:53:38.322Z,28.07
2019-06-08T06:56:09.943Z,28.27
2019-06-08T06:58:42.989Z,28.34
2019-06-08T07:01:16.678Z,28.55
2019-06-08T07:03:48.465Z,28.43
2019-06-08T07:06:21.224Z,28.60
2019-06-08T07:08:54.442Z,28.83
2019-06-08T07:11:27.308Z,28.89
2019-06-08T07:13:59.707Z,28.85
2019-06-08T07:16:34.084Z,28.98
2019-06-08T07:19:06.217Z,29.14
2019-06-08T07:21:42.080Z,29.24
2019-06-08T07:24:13.178Z,29.58
2019-06-08T07:26:48.265Z,29.52
2019-06-08T07:29:20.109Z,29.78
2019-06-08T07:31:55.117Z,29.92
2019-06-08T07:34:28.891Z,30.06
2019-06-08T07:37:00.733Z,29.86
2019-06-08T07:39:32.676Z,29.88
2019-06-08T07:42:04.645Z,29.99
2019-06-08T07:44:36.697Z,30.17
2019-06-08T07:47:09.022Z,30.35
2019-06-08T07:49:41.487Z,30.54
2019-06-08T07:52:14.663Z,30.49
2019-06-08T07:54:48.033Z,30.50
2019-06-08T07:57:21.194Z,30.50
2019-06-08T07:59:54.562Z,30.41
2019-06-08T08:02:27.171Z,30.52
2019-06-08T08:04:58.971Z,30.92
2019-06-08T08:07:30.997Z,30.98
2019-06-08T08:10:02.948Z,31.09
2019-06-08T08:12:34.626Z,31.16
2019-06-08T08:15:08.453Z,31.18
2019-06-08T08:17:43.888Z,31.00
2019-06-08T08:20:21.825Z,31.12
2019-06-08T08:22:57.895Z,31.46
2019-06-08T08:25:29.132Z,31.67
2019-06-08T08:28:02.658Z,31.42
2019-06-08T08:30:37.683Z,30.92
2019-06-08T08:33:09.085Z,30.67
2019-06-08T08:35:40.971Z,31.08
2019-06-08T08:38:13.429Z,31.46
2019-06-08T08:40:45.601Z,31.92
2019-06-08T08:43:17.987Z,32.09
2019-06-08T08:45:58.683Z,31.70
2019-06-08T08:48:29.433Z,31.58
2019-06-08T08:51:03.521Z,30.74
2019-06-08T08:53:37.493Z,30.58
2019-06-08T08:56:09.623Z,31.09
2019-06-08T08:58:41.461Z,31.46
2019-06-08T09:01:13.926Z,31.94
2019-06-08T09:03:48.249Z,32.46
2019-06-08T09:06:20.013Z,32.90
2019-06-08T09:08:53.785Z,33.07
2019-06-08T09:11:28.934Z,32.92
2019-06-08T09:14:05.170Z,32.28
2019-06-08T09:16:35.433Z,32.30
2019-06-08T09:19:08.539Z,32.65
2019-06-08T09:21:41.256Z,32.86
2019-06-08T09:24:14.627Z,32.87
2019-06-08T09:26:48.013Z,33.24
2019-06-08T09:29:21.325Z,33.35
2019-06-08T09:31:53.959Z,33.72
2019-06-08T09:34:28.293Z,33.82
2019-06-08T09:37:02.839Z,33.63
2019-06-08T09:39:38.357Z,33.30
2019-06-08T09:42:09.382Z,33.05
2019-06-08T09:44:41.506Z,32.99
2019-06-08T09:47:13.630Z,32.96
2019-06-08T09:49:48.028Z,32.78
2019-06-08T09:52:21.721Z,33.23
2019-06-08T09:54:54.751Z,33.28
2019-06-08T09:57:28.638Z,33.16
2019-06-08T10:00:05.156Z,33.34
2019-06-08T10:02:37.069Z,33.62
2019-06-08T10:05:09.718Z,34.01
2019-06-08T10:07:41.524Z,34.12
2019-06-08T10:10:13.610Z,33.88
2019-06-08T10:12:48.390Z,33.65
2019-06-08T10:15:21.837Z,33.66
2019-06-08T10:17:54.800Z,33.39
2019-06-08T10:20:28.846Z,33.47
2019-06-08T10:23:04.764Z,33.51
2019-06-08T10:25:35.199Z,33.23
2019-06-08T10:28:14.024Z,32.81
2019-06-08T10:30:41.738Z,32.94
2019-06-08T10:33:13.711Z,33.20
2019-06-08T10:35:47.989Z,32.80
2019-06-08T10:38:19.470Z,33.52
2019-06-08T10:41:17.073Z,33.67
2019-06-08T10:43:40.520Z,33.59
2019-06-08T10:46:16.998Z,32.94
2019-06-08T10:48:48.448Z,33.00
2019-06-08T10:51:20.163Z,32.74
2019-06-08T10:53:53.480Z,32.95
2019-06-08T10:56:30.859Z,32.38
2019-06-08T10:59:01.596Z,31.60
2019-06-08T11:01:32.414Z,31.44
2019-06-08T11:04:05.438Z,31.82
2019-06-08T11:06:40.218Z,31.81
2019-06-08T11:09:14.841Z,32.21
2019-06-08T11:11:47.950Z,32.22
2019-06-08T11:14:22.500Z,32.69
2019-06-08T11:16:52.881Z,32.78
2019-06-08T11:19:26.561Z,32.98
2019-06-08T11:22:02.151Z,32.68
2019-06-08T11:24:31.364Z,32.23
2019-06-08T11:27:03.600Z,31.22
2019-06-08T11:29:38.150Z,30.85
2019-06-08T11:32:12.264Z,30.52
2019-06-08T11:34:42.415Z,29.89
2019-06-08T11:37:18.542Z,29.62
2019-06-08T11:39:49.178Z,29.84
2019-06-08T11:42:25.348Z,30.69
2019-06-08T11:44:58.496Z,31.43
2019-06-08T11:47:31.010Z,31.17
2019-06-08T11:50:03.016Z,31.36
2019-06-08T11:52:38.238Z,31.16
2019-06-08T11:55:13.068Z,31.45
2019-06-08T11:57:45.377Z,30.74
2019-06-08T12:00:30.249Z,31.07
2019-06-08T12:02:59.506Z,31.22
2019-06-08T12:05:33.047Z,31.10
2019-06-08T12:08:04.978Z,30.59
2019-06-08T12:10:38.219Z,30.78
2019-06-08T12:13:12.783Z,31.00
2019-06-08T12:15:44.204Z,30.61
2019-06-08T12:18:18.185Z,30.68
2019-06-08T12:20:49.786Z,30.67
2019-06-08T12:23:21.795Z,30.32
2019-06-08T12:25:53.612Z,29.88
2019-06-08T12:28:27.933Z,29.67
2019-06-08T12:31:01.076Z,29.70
2019-06-08T12:33:33.332Z,29.94
2019-06-08T12:36:08.516Z,30.23
2019-06-08T12:38:39.186Z,30.47
2019-06-08T12:41:12.427Z,30.51
2019-06-08T12:43:44.567Z,30.42
2019-06-08T12:46:19.125Z,30.17
2019-06-08T12:48:49.878Z,30.09
2019-06-08T12:51:21.799Z,30.08
2019-06-08T12:53:53.897Z,30.03
2019-06-08T12:56:25.751Z,29.61
2019-06-08T12:58:58.024Z,29.17
2019-06-08T13:01:29.946Z,28.80
2019-06-08T13:04:02.718Z,28.82
2019-06-08T13:06:34.441Z,28.76
2019-06-08T13:09:10.010Z,28.47
2019-06-08T13:11:40.701Z,28.12
2019-06-08T13:14:14.710Z,28.14
2019-06-08T13:16:48.945Z,27.82
2019-06-08T13:19:20.082Z,27.84
2019-06-08T13:21:51.797Z,27.76
2019-06-08T13:24:23.414Z,27.45
2019-06-08T13:26:57.803Z,27.46
2019-06-08T13:29:28.463Z,27.37
2019-06-08T13:32:01.561Z,27.22
2019-06-08T13:34:33.469Z,27.27
2019-06-08T13:37:08.224Z,27.37
2019-06-08T13:39:41.166Z,27.12
2019-06-08T13:42:13.230Z,27.15
2019-06-08T13:44:47.418Z,27.21
2019-06-08T13:47:21.314Z,27.14
2019-06-08T13:49:53.925Z,26.98
2019-06-08T13:52:28.008Z,26.61
2019-06-08T13:54:59.259Z,26.58
2019-06-08T13:57:31.226Z,26.66
2019-06-08T14:00:02.959Z,26.49
2019-06-08T14:02:39.682Z,26.30
2019-06-08T14:05:10.901Z,26.29
2019-06-08T14:07:43.098Z,26.29
2019-06-08T14:10:19.605Z,26.40
2019-06-08T14:12:51.595Z,26.44
2019-06-08T14:15:23.429Z,26.41
2019-06-08T14:17:55.302Z,26.42
2019-06-08T14:20:32.543Z,26.22
2019-06-08T14:23:08.704Z,26.22
2019-06-08T14:25:50.150Z,26.01
2019-06-08T14:28:18.157Z,25.95
2019-06-08T14:30:49.387Z,25.81
2019-06-08T14:33:26.739Z,25.98
2019-06-08T14:35:56.786Z,25.93
2019-06-08T14:38:35.863Z,25.94
2019-06-08T14:41:02.242Z,26.12
2019-06-08T14:43:33.962Z,26.31
2019-06-08T14:46:07.899Z,26.42
2019-06-08T14:48:39.090Z,26.52
2019-06-08T14:51:12.038Z,26.63
2019-06-08T14:53:44.071Z,26.56
2019-06-08T14:56:19.411Z,26.60
2019-06-08T14:58:49.818Z,26.52
2019-06-08T15:01:23.908Z,26.67
2019-06-08T15:03:55.199Z,26.93
2019-06-08T15:06:31.017Z,27.17
2019-06-08T15:09:00.385Z,27.28
2019-06-08T15:11:35.227Z,27.34
2019-06-08T15:14:09.195Z,27.43
2019-06-08T15:16:41.868Z,27.36
2019-06-08T15:19:13.907Z,27.54
2019-06-08T15:21:48.291Z,27.25
2019-06-08T15:24:20.561Z,26.96
2019-06-08T15:26:52.699Z,26.97
2019-06-08T15:29:24.959Z,26.80
2019-06-08T15:31:58.229Z,26.78
2019-06-08T15:34:32.950Z,26.67
2019-06-08T15:37:04.362Z,26.58
2019-06-08T15:39:36.090Z,26.56
2019-06-08T15:42:09.593Z,26.59
2019-06-08T15:44:41.376Z,26.68
2019-06-08T15:47:17.882Z,26.68
2019-06-08T15:49:50.437Z,26.56
2019-06-08T15:52:22.618Z,26.55
2019-06-08T15:54:54.397Z,26.49
2019-06-08T15:57:29.611Z,26.21
2019-06-08T16:00:03.042Z,25.94
2019-06-08T16:02:37.525Z,25.91
2019-06-08T16:05:15.295Z,25.89
2019-06-08T16:07:49.428Z,25.91
2019-06-08T16:10:24.533Z,25.80
2019-06-08T16:12:56.763Z,25.81
2019-06-08T16:15:28.831Z,25.78
2019-06-08T16:18:01.310Z,25.79
2019-06-08T16:20:33.581Z,25.83
2019-06-08T16:23:06.002Z,25.89
2019-06-08T16:25:38.971Z,25.89
2019-06-08T16:28:11.174Z,25.73
2019-06-08T16:30:43.027Z,25.67
2019-06-08T16:33:14.765Z,25.66
2019-06-08T16:35:47.019Z,25.47
2019-06-08T16:38:21.363Z,25.29
2019-06-08T16:40:56.060Z,25.14
2019-06-08T16:43:29.019Z,24.76
2019-06-08T16:46:01.073Z,24.61
2019-06-08T16:48:34.241Z,24.63
2019-06-08T16:51:07.651Z,24.62
2019-06-08T16:53:44.253Z,24.33
2019-06-08T16:56:17.652Z,24.38
2019-06-08T16:58:49.888Z,24.32
2019-06-08T17:01:21.835Z,24.34
2019-06-08T17:03:53.720Z,24.33
2019-06-08T17:06:25.450Z,24.44
2019-06-08T17:08:57.207Z,24.46
2019-06-08T17:11:30.132Z,24.41
2019-06-08T17:14:02.857Z,24.32
2019-06-08T17:16:34.699Z,24.26
2019-06-08T17:19:06.479Z,24.33
2019-06-08T17:21:40.494Z,24.13
2019-06-08T17:24:13.324Z,23.76
2019-06-08T17:26:45.087Z,23.46
2019-06-08T17:29:18.185Z,23.38
2019-06-08T17:31:51.094Z,23.40
2019-06-08T17:34:24.914Z,23.43
2019-06-08T17:36:58.368Z,23.43
2019-06-08T17:39:31.703Z,23.56
2019-06-08T17:42:04.562Z,23.68
2019-06-08T17:44:36.815Z,23.64
2019-06-08T17:47:12.269Z,23.66
2019-06-08T17:49:44.024Z,23.66
2019-06-08T17:52:19.393Z,23.62
2019-06-08T17:54:52.173Z,23.65
2019-06-08T17:57:24.096Z,23.59
2019-06-08T17:59:56.585Z,23.55
2019-06-08T18:02:31.299Z,23.55
2019-06-08T18:05:02.377Z,23.64
2019-06-08T18:07:34.265Z,23.72
2019-06-08T18:10:07.846Z,23.72
2019-06-08T18:12:44.593Z,23.65
2019-06-08T18:15:17.431Z,23.69
2019-06-08T18:17:49.264Z,23.60
2019-06-08T18:20:22.621Z,23.51
2019-06-08T18:22:54.828Z,23.40
2019-06-08T18:25:27.856Z,23.32
2019-06-08T18:28:09.736Z,23.22
2019-06-08T18:30:34.589Z,23.15
2019-06-08T18:33:07.379Z,23.01
2019-06-08T18:35:41.784Z,23.00
2019-06-08T18:38:13.676Z,22.94
2019-06-08T18:40:47.826Z,22.97
2019-06-08T18:43:18.728Z,22.98
2019-06-08T18:45:51.369Z,22.98
2019-06-08T18:48:23.033Z,22.96
2019-06-08T18:50:57.099Z,22.93
2019-06-08T18:53:28.667Z,22.99
2019-06-08T18:56:00.725Z,22.98
2019-06-08T18:58:32.964Z,22.94
2019-06-08T19:01:04.842Z,22.83
2019-06-08T19:03:43.120Z,22.78
2019-06-08T19:06:11.445Z,22.80
2019-06-08T19:08:45.431Z,22.81
2019-06-08T19:11:19.198Z,22.76
2019-06-08T19:13:52.635Z,22.74
2019-06-08T19:16:25.094Z,22.74
2019-06-08T19:18:58.115Z,22.78
2019-06-08T19:21:30.207Z,22.75
2019-06-08T19:24:01.995Z,22.77
2019-06-08T19:26:33.812Z,22.74
2019-06-08T19:29:07.584Z,22.71
2019-06-08T19:31:51.230Z,22.63
2019-06-08T19:34:23.609Z,22.48
2019-06-08T19:36:57.304Z,22.43
2019-06-08T19:39:28.946Z,22.43
2019-06-08T19:42:00.693Z,22.33
2019-06-08T19:44:33.061Z,22.27
2019-06-08T19:47:04.925Z,22.29
2019-06-08T19:49:38.740Z,22.25
2019-06-08T19:52:10.860Z,22.22
2019-06-08T19:54:45.939Z,22.22
2019-06-08T19:57:17.481Z,22.24
2019-06-08T19:59:49.705Z,22.29
2019-06-08T20:02:21.380Z,22.22
2019-06-08T20:04:53.718Z,22.15
2019-06-08T20:07:27.561Z,22.13
2019-06-08T20:09:58.726Z,22.23
2019-06-08T20:12:30.490Z,22.26
2019-06-08T20:15:02.395Z,22.25
2019-06-08T20:17:34.121Z,22.25
2019-06-08T20:20:07.693Z,22.21
2019-06-08T20:22:41.748Z,22.19
2019-06-08T20:25:17.368Z,22.13
2019-06-08T20:27:51.534Z,22.07
2019-06-08T20:30:22.788Z,22.06
2019-06-08T20:32:54.575Z,22.05
2019-06-08T20:35:28.100Z,21.97
2019-06-08T20:37:59.993Z,21.95
2019-06-08T20:40:32.095Z,21.86
2019-06-08T20:43:03.783Z,21.89
2019-06-08T20:45:37.534Z,21.90
2019-06-08T20:48:09.376Z,21.83
2019-06-08T20:50:42.291Z,21.79
2019-06-08T20:53:14.829Z,21.77
2019-06-08T20:55:50.748Z,21.73
2019-06-08T20:58:21.879Z,21.78
2019-06-08T21:00:54.265Z,21.77
2019-06-08T21:03:27.974Z,21.70
2019-06-08T21:05:59.641Z,21.63
2019-06-08T21:08:33.467Z,21.71
2019-06-08T21:11:05.289Z,21.58
2019-06-08T21:13:37.555Z,21.50
2019-06-08T21:16:09.398Z,21.51
2019-06-08T21:18:40.960Z,21.53
2019-06-08T21:21:12.875Z,21.53
2019-06-08T21:23:44.858Z,21.48
2019-06-08T21:26:18.591Z,21.52
2019-06-08T21:28:52.815Z,21.58
2019-06-08T21:31:23.792Z,21.57
2019-06-08T21:34:00.460Z,21.49
2019-06-08T21:36:31.102Z,21.46
2019-06-08T21:39:03.042Z,21.55
2019-06-08T21:41:37.252Z,21.60
2019-06-08T21:44:09.244Z,21.62
2019-06-08T21:46:41.013Z,21.57
2019-06-08T21:49:12.738Z,21.60
2019-06-08T21:51:46.940Z,21.59
2019-06-08T21:54:18.066Z,21.50
2019-06-08T21:56:51.695Z,21.57
2019-06-08T21:59:23.544Z,21.56
2019-06-08T22:02:01.995Z,21.57
2019-06-08T22:04:33.187Z,21.52
2019-06-08T22:07:06.954Z,21.35
2019-06-08T22:09:38.158Z,21.42
2019-06-08T22:12:09.934Z,21.38
2019-06-08T22:14:43.237Z,21.32
2019-06-08T22:17:16.061Z,21.31
2019-06-08T22:19:48.356Z,21.28
2019-06-08T22:22:20.947Z,21.30
2019-06-08T22:24:53.460Z,21.36
2019-06-08T22:27:27.258Z,21.27
2019-06-08T22:30:01.001Z,21.25
2019-06-08T22:32:32.654Z,21.08
2019-06-08T22:35:04.636Z,21.03
2019-06-08T22:37:37.944Z,21.03
2019-06-08T22:40:11.002Z,21.00
2019-06-08T22:42:42.806Z,21.02
2019-06-08T22:45:17.522Z,20.99
2019-06-08T22:47:49.477Z,20.88
2019-06-08T22:50:21.157Z,20.74
2019-06-08T22:52:53.984Z,20.77
2019-06-08T22:55:27.731Z,20.75
2019-06-08T22:58:01.503Z,20.70
2019-06-08T23:00:49.105Z,20.75
2019-06-08T23:03:08.798Z,20.77
2019-06-08T23:05:41.761Z,20.74
2019-06-08T23:08:13.584Z,20.79
2019-06-08T23:10:45.378Z,20.81
2019-06-08T23:13:18.066Z,20.82
2019-06-08T23:15:51.116Z,20.79
2019-06-08T23:18:22.862Z,20.76
2019-06-08T23:20:55.576Z,20.78
2019-06-08T23:23:28.115Z,20.77
2019-06-08T23:26:02.121Z,20.78
2019-06-08T23:28:33.302Z,20.80
2019-06-08T23:31:19.757Z,20.76
2019-06-08T23:33:38.942Z,20.81
2019-06-08T23:38:44.184Z,20.82
2019-06-08T23:41:17.696Z,20.84
2019-06-08T23:43:50.948Z,20.82
2019-06-08T23:46:22.612Z,20.80
2019-06-08T23:48:54.449Z,20.78
2019-06-08T23:51:27.564Z,20.86
2019-06-08T23:54:02.231Z,20.73
2019-06-08T23:56:33.147Z,20.64
2019-06-08T23:59:05.174Z,20.61
